sensor_id;sensor_type;location;lat;lon;timestamp;temperature;humidity
11242;DHT22;5678;52.370;9.006;2023-07-13T00:02:06;14.70;99.90
11242;DHT22;5678;52.370;9.006;2023-07-13T00:04:34;14.70;99.90
11242;DHT22;5678;52.370;9.006;2023-07-13T00:07:03;14.70;99.90
11242;DHT22;5678;52.370;9.006;2023-07-13T00:09:32;15.10;99.90
11242;DHT22;5678;52.370;9.006;2023-07-13T00:12:01;14.70;99.90
11242;DHT22;5678;52.370;9.006;2023-07-13T00:14:29;14.70;99.90
11242;DHT22;5678;52.370;9.006;2023-07-13T00:16:57;14.80;99.90
11242;DHT22;5678;52.370;9.006;2023-07-13T00:19:27;14.60;99.90
11242;DHT22;5678;52.370;9.006;2023-07-13T00:21:55;14.60;99.90
11242;DHT22;5678;52.370;9.006;2023-07-13T00:24:23;14.60;99.90
11242;DHT22;5678;52.370;9.006;2023-07-13T00:26:52;14.60;99.90
11242;DHT22;5678;52.370;9.006;2023-07-13T00:29:20;14.50;99.90
11242;DHT22;5678;52.370;9.006;2023-07-13T00:31:48;14.50;99.90
11242;DHT22;5678;52.370;9.006;2023-07-13T00:34:16;14.40;99.90
11242;DHT22;5678;52.370;9.006;2023-07-13T00:36:44;14.50;99.90
11242;DHT22;5678;52.370;9.006;2023-07-13T00:39:12;14.30;99.90
11242;DHT22;5678;52.370;9.006;2023-07-13T00:41:40;14.20;99.90
11242;DHT22;5678;52.370;9.006;2023-07-13T00:44:13;14.20;99.90
11242;DHT22;5678;52.370;9.006;2023-07-13T00:46:42;14.20;99.90
11242;DHT22;5678;52.370;9.006;2023-07-13T00:49:12;14.10;99.90
11242;DHT22;5678;52.370;9.006;2023-07-13T00:51:45;14.10;99.90
11242;DHT22;5678;52.370;9.006;2023-07-13T00:54:18;14.10;99.90
11242;DHT22;5678;52.370;9.006;2023-07-13T00:56:49;14.10;99.90
11242;DHT22;5678;52.370;9.006;2023-07-13T00:59:20;14.10;99.90
11242;DHT22;5678;52.370;9.006;2023-07-13T01:01:48;14.00;99.90
11242;DHT22;5678;52.370;9.006;2023-07-13T01:04:16;14.00;99.90
11242;DHT22;5678;52.370;9.006;2023-07-13T01:06:45;14.10;99.90
11242;DHT22;5678;52.370;9.006;2023-07-13T01:09:14;14.10;99.90
11242;DHT22;5678;52.370;9.006;2023-07-13T01:11:42;13.00;99.90
11242;DHT22;5678;52.370;9.006;2023-07-13T01:14:12;14.00;99.90
11242;DHT22;5678;52.370;9.006;2023-07-13T01:16:45;13.90;99.90
11242;DHT22;5678;52.370;9.006;2023-07-13T01:19:33;14.00;99.90
11242;DHT22;5678;52.370;9.006;2023-07-13T01:22:06;14.00;99.90
11242;DHT22;5678;52.370;9.006;2023-07-13T01:24:36;14.00;99.90
11242;DHT22;5678;52.370;9.006;2023-07-13T01:27:05;14.00;99.90
11242;DHT22;5678;52.370;9.006;2023-07-13T01:29:35;14.30;99.90
11242;DHT22;5678;52.370;9.006;2023-07-13T01:32:11;14.00;99.90
11242;DHT22;5678;52.370;9.006;2023-07-13T01:34:39;13.90;99.90
11242;DHT22;5678;52.370;9.006;2023-07-13T01:37:11;14.30;99.90
11242;DHT22;5678;52.370;9.006;2023-07-13T01:39:40;13.90;99.90
11242;DHT22;5678;52.370;9.006;2023-07-13T01:42:08;13.90;99.90
11242;DHT22;5678;52.370;9.006;2023-07-13T01:44:36;13.90;99.90
11242;DHT22;5678;52.370;9.006;2023-07-13T01:47:05;13.80;99.90
11242;DHT22;5678;52.370;9.006;2023-07-13T01:49:33;13.80;99.90
11242;DHT22;5678;52.370;9.006;2023-07-13T01:52:01;14.40;99.90
11242;DHT22;5678;52.370;9.006;2023-07-13T01:54:30;13.70;99.90
11242;DHT22;5678;52.370;9.006;2023-07-13T01:57:00;13.60;99.90
11242;DHT22;5678;52.370;9.006;2023-07-13T01:59:29;13.70;99.90
11242;DHT22;5678;52.370;9.006;2023-07-13T02:01:59;13.70;99.90
11242;DHT22;5678;52.370;9.006;2023-07-13T02:04:27;13.80;99.90
11242;DHT22;5678;52.370;9.006;2023-07-13T02:06:55;13.80;99.90
11242;DHT22;5678;52.370;9.006;2023-07-13T02:09:23;13.90;99.90
11242;DHT22;5678;52.370;9.006;2023-07-13T02:11:52;13.90;99.90
11242;DHT22;5678;52.370;9.006;2023-07-13T02:14:20;14.00;99.90
11242;DHT22;5678;52.370;9.006;2023-07-13T02:16:48;14.00;99.90
11242;DHT22;5678;52.370;9.006;2023-07-13T02:23:10;14.30;99.90
11242;DHT22;5678;52.370;9.006;2023-07-13T02:30:33;14.40;99.90
11242;DHT22;5678;52.370;9.006;2023-07-13T02:34:31;14.50;99.90
11242;DHT22;5678;52.370;9.006;2023-07-13T02:41:17;14.70;99.90
11242;DHT22;5678;52.370;9.006;2023-07-13T02:44:33;14.60;99.90
11242;DHT22;5678;52.370;9.006;2023-07-13T05:24:27;20.90;99.90
11242;DHT22;5678;52.370;9.006;2023-07-13T05:26:55;21.30;99.90
11242;DHT22;5678;52.370;9.006;2023-07-13T05:29:23;21.50;99.90
11242;DHT22;5678;52.370;9.006;2023-07-13T05:31:51;21.60;99.90
11242;DHT22;5678;52.370;9.006;2023-07-13T05:34:19;21.70;99.90
11242;DHT22;5678;52.370;9.006;2023-07-13T05:36:47;21.70;99.90
11242;DHT22;5678;52.370;9.006;2023-07-13T05:39:15;22.00;99.90
11242;DHT22;5678;52.370;9.006;2023-07-13T05:41:45;21.90;99.90
11242;DHT22;5678;52.370;9.006;2023-07-13T05:44:12;21.90;99.90
11242;DHT22;5678;52.370;9.006;2023-07-13T05:46:40;22.10;99.90
11242;DHT22;5678;52.370;9.006;2023-07-13T05:49:08;22.40;99.90
11242;DHT22;5678;52.370;9.006;2023-07-13T05:51:37;22.30;99.90
11242;DHT22;5678;52.370;9.006;2023-07-13T05:54:05;22.30;99.90
11242;DHT22;5678;52.370;9.006;2023-07-13T05:56:33;22.50;99.90
11242;DHT22;5678;52.370;9.006;2023-07-13T05:59:02;23.00;99.90
11242;DHT22;5678;52.370;9.006;2023-07-13T06:01:30;23.00;99.90
11242;DHT22;5678;52.370;9.006;2023-07-13T06:03:58;23.10;99.90
11242;DHT22;5678;52.370;9.006;2023-07-13T06:08:55;23.20;99.90
11242;DHT22;5678;52.370;9.006;2023-07-13T06:11:24;23.20;99.90
11242;DHT22;5678;52.370;9.006;2023-07-13T06:13:52;23.50;99.90
11242;DHT22;5678;52.370;9.006;2023-07-13T06:16:22;23.40;99.90
11242;DHT22;5678;52.370;9.006;2023-07-13T06:18:50;23.40;99.90
11242;DHT22;5678;52.370;9.006;2023-07-13T06:21:19;23.20;99.90
11242;DHT22;5678;52.370;9.006;2023-07-13T06:23:49;23.50;99.90
11242;DHT22;5678;52.370;9.006;2023-07-13T06:26:18;23.40;99.90
11242;DHT22;5678;52.370;9.006;2023-07-13T06:28:46;23.40;99.90
11242;DHT22;5678;52.370;9.006;2023-07-13T06:31:15;23.30;99.90
11242;DHT22;5678;52.370;9.006;2023-07-13T06:33:44;23.50;99.90
11242;DHT22;5678;52.370;9.006;2023-07-13T06:36:12;23.80;99.90
11242;DHT22;5678;52.370;9.006;2023-07-13T06:38:40;24.00;99.90
11242;DHT22;5678;52.370;9.006;2023-07-13T06:41:08;23.90;99.90
11242;DHT22;5678;52.370;9.006;2023-07-13T06:43:37;24.10;99.90
11242;DHT22;5678;52.370;9.006;2023-07-13T06:46:05;24.10;99.90
11242;DHT22;5678;52.370;9.006;2023-07-13T06:48:33;24.20;99.90
11242;DHT22;5678;52.370;9.006;2023-07-13T06:51:03;24.10;99.90
11242;DHT22;5678;52.370;9.006;2023-07-13T06:53:31;23.80;99.90
11242;DHT22;5678;52.370;9.006;2023-07-13T06:55:59;23.90;99.90
11242;DHT22;5678;52.370;9.006;2023-07-13T06:58:27;24.40;99.90
11242;DHT22;5678;52.370;9.006;2023-07-13T07:00:55;24.40;99.90
11242;DHT22;5678;52.370;9.006;2023-07-13T07:03:23;25.10;99.90
11242;DHT22;5678;52.370;9.006;2023-07-13T07:05:51;25.10;99.90
11242;DHT22;5678;52.370;9.006;2023-07-13T07:08:20;25.00;99.90
11242;DHT22;5678;52.370;9.006;2023-07-13T07:10:48;24.80;99.90
11242;DHT22;5678;52.370;9.006;2023-07-13T07:13:20;24.80;99.90
11242;DHT22;5678;52.370;9.006;2023-07-13T07:15:50;24.50;99.90
11242;DHT22;5678;52.370;9.006;2023-07-13T07:18:18;24.30;99.90
11242;DHT22;5678;52.370;9.006;2023-07-13T07:20:46;23.90;99.90
11242;DHT22;5678;52.370;9.006;2023-07-13T07:23:14;23.60;99.90
11242;DHT22;5678;52.370;9.006;2023-07-13T07:25:44;22.90;99.90
11242;DHT22;5678;52.370;9.006;2023-07-13T07:28:15;22.70;99.90
11242;DHT22;5678;52.370;9.006;2023-07-13T07:30:48;22.20;99.90
11242;DHT22;5678;52.370;9.006;2023-07-13T07:33:19;21.90;99.90
11242;DHT22;5678;52.370;9.006;2023-07-13T07:35:47;22.00;99.90
11242;DHT22;5678;52.370;9.006;2023-07-13T07:38:18;22.00;99.90
11242;DHT22;5678;52.370;9.006;2023-07-13T07:40:53;21.80;99.90
11242;DHT22;5678;52.370;9.006;2023-07-13T07:43:24;21.90;99.90
11242;DHT22;5678;52.370;9.006;2023-07-13T07:45:52;22.00;99.90
11242;DHT22;5678;52.370;9.006;2023-07-13T07:48:20;21.80;99.90
11242;DHT22;5678;52.370;9.006;2023-07-13T07:50:49;21.50;99.90
11242;DHT22;5678;52.370;9.006;2023-07-13T07:53:17;21.90;99.90
11242;DHT22;5678;52.370;9.006;2023-07-13T07:55:44;22.00;99.90
11242;DHT22;5678;52.370;9.006;2023-07-13T07:58:17;22.40;99.90
11242;DHT22;5678;52.370;9.006;2023-07-13T08:01:06;22.50;99.90
11242;DHT22;5678;52.370;9.006;2023-07-13T08:03:36;22.50;99.90
11242;DHT22;5678;52.370;9.006;2023-07-13T08:06:07;22.40;99.90
11242;DHT22;5678;52.370;9.006;2023-07-13T08:08:38;22.70;99.90
11242;DHT22;5678;52.370;9.006;2023-07-13T08:11:07;22.70;99.90
11242;DHT22;5678;52.370;9.006;2023-07-13T08:13:40;22.90;99.90
11242;DHT22;5678;52.370;9.006;2023-07-13T08:16:08;23.40;99.90
11242;DHT22;5678;52.370;9.006;2023-07-13T08:18:36;23.70;99.90
11242;DHT22;5678;52.370;9.006;2023-07-13T08:21:05;23.70;99.90
11242;DHT22;5678;52.370;9.006;2023-07-13T08:23:34;23.50;99.90
11242;DHT22;5678;52.370;9.006;2023-07-13T08:26:02;23.30;99.90
11242;DHT22;5678;52.370;9.006;2023-07-13T08:28:31;23.50;99.90
11242;DHT22;5678;52.370;9.006;2023-07-13T08:31:05;23.90;99.90
11242;DHT22;5678;52.370;9.006;2023-07-13T08:33:35;23.90;99.90
11242;DHT22;5678;52.370;9.006;2023-07-13T08:36:04;24.10;99.90
11242;DHT22;5678;52.370;9.006;2023-07-13T08:38:32;23.60;99.90
11242;DHT22;5678;52.370;9.006;2023-07-13T08:41:09;24.10;99.90
11242;DHT22;5678;52.370;9.006;2023-07-13T08:43:38;24.30;99.90
11242;DHT22;5678;52.370;9.006;2023-07-13T08:46:13;24.30;99.90
11242;DHT22;5678;52.370;9.006;2023-07-13T08:48:45;24.40;99.90
11242;DHT22;5678;52.370;9.006;2023-07-13T08:51:24;24.50;99.90
11242;DHT22;5678;52.370;9.006;2023-07-13T08:53:57;24.70;99.90
11242;DHT22;5678;52.370;9.006;2023-07-13T08:56:27;25.00;99.90
11242;DHT22;5678;52.370;9.006;2023-07-13T08:58:58;24.90;99.90
11242;DHT22;5678;52.370;9.006;2023-07-13T09:01:32;24.80;99.90
11242;DHT22;5678;52.370;9.006;2023-07-13T09:04:05;24.90;99.90
11242;DHT22;5678;52.370;9.006;2023-07-13T09:06:40;24.50;99.90
11242;DHT22;5678;52.370;9.006;2023-07-13T09:09:18;24.70;99.90
11242;DHT22;5678;52.370;9.006;2023-07-13T09:11:55;25.10;99.90
11242;DHT22;5678;52.370;9.006;2023-07-13T09:14:34;25.50;99.90
11242;DHT22;5678;52.370;9.006;2023-07-13T09:17:19;25.70;99.90
11242;DHT22;5678;52.370;9.006;2023-07-13T09:19:54;26.00;99.90
11242;DHT22;5678;52.370;9.006;2023-07-13T09:22:25;26.10;99.90
11242;DHT22;5678;52.370;9.006;2023-07-13T09:25:00;26.10;99.90
11242;DHT22;5678;52.370;9.006;2023-07-13T09:27:33;26.20;99.90
11242;DHT22;5678;52.370;9.006;2023-07-13T09:30:20;26.60;99.90
11242;DHT22;5678;52.370;9.006;2023-07-13T09:32:52;27.10;99.90
11242;DHT22;5678;52.370;9.006;2023-07-13T09:35:24;27.60;99.90
11242;DHT22;5678;52.370;9.006;2023-07-13T09:43:01;27.70;99.90
11242;DHT22;5678;52.370;9.006;2023-07-13T09:45:33;27.60;99.90
11242;DHT22;5678;52.370;9.006;2023-07-13T09:48:06;27.30;99.90
11242;DHT22;5678;52.370;9.006;2023-07-13T09:50:35;26.90;99.90
11242;DHT22;5678;52.370;9.006;2023-07-13T09:53:03;26.50;99.90
11242;DHT22;5678;52.370;9.006;2023-07-13T09:55:33;26.20;99.90
11242;DHT22;5678;52.370;9.006;2023-07-13T09:58:09;26.10;99.90
11242;DHT22;5678;52.370;9.006;2023-07-13T10:00:38;26.10;99.90
11242;DHT22;5678;52.370;9.006;2023-07-13T10:03:18;26.10;99.90
11242;DHT22;5678;52.370;9.006;2023-07-13T10:05:49;26.10;99.90
11242;DHT22;5678;52.370;9.006;2023-07-13T10:08:21;26.40;99.90
11242;DHT22;5678;52.370;9.006;2023-07-13T10:10:54;26.60;99.90
11242;DHT22;5678;52.370;9.006;2023-07-13T10:13:30;27.00;99.90
11242;DHT22;5678;52.370;9.006;2023-07-13T10:15:59;27.10;99.90
11242;DHT22;5678;52.370;9.006;2023-07-13T10:18:33;27.20;99.90
11242;DHT22;5678;52.370;9.006;2023-07-13T10:21:13;27.10;99.90
11242;DHT22;5678;52.370;9.006;2023-07-13T10:23:48;27.10;99.90
11242;DHT22;5678;52.370;9.006;2023-07-13T10:26:19;26.90;99.90
11242;DHT22;5678;52.370;9.006;2023-07-13T10:28:52;26.80;99.90
11242;DHT22;5678;52.370;9.006;2023-07-13T10:31:22;26.90;99.90
11242;DHT22;5678;52.370;9.006;2023-07-13T10:33:53;27.20;99.90
11242;DHT22;5678;52.370;9.006;2023-07-13T10:36:30;27.40;99.90
11242;DHT22;5678;52.370;9.006;2023-07-13T10:39:01;27.70;99.90
11242;DHT22;5678;52.370;9.006;2023-07-13T10:41:33;27.90;99.90
11242;DHT22;5678;52.370;9.006;2023-07-13T10:44:02;28.10;49.10
11242;DHT22;5678;52.370;9.006;2023-07-13T10:46:31;28.40;99.90
11242;DHT22;5678;52.370;9.006;2023-07-13T10:49:04;28.60;1.00
11242;DHT22;5678;52.370;9.006;2023-07-13T10:51:33;28.80;1.00
11242;DHT22;5678;52.370;9.006;2023-07-13T10:54:18;28.90;1.00
11242;DHT22;5678;52.370;9.006;2023-07-13T10:57:05;28.70;99.90
11242;DHT22;5678;52.370;9.006;2023-07-13T10:59:35;28.20;99.90
11242;DHT22;5678;52.370;9.006;2023-07-13T11:02:12;28.40;99.90
11242;DHT22;5678;52.370;9.006;2023-07-13T11:04:44;28.60;99.90
11242;DHT22;5678;52.370;9.006;2023-07-13T11:07:21;28.70;99.90
11242;DHT22;5678;52.370;9.006;2023-07-13T11:09:50;28.70;99.90
11242;DHT22;5678;52.370;9.006;2023-07-13T11:12:49;28.70;99.90
11242;DHT22;5678;52.370;9.006;2023-07-13T11:15:33;28.70;99.90
11242;DHT22;5678;52.370;9.006;2023-07-13T11:18:20;29.10;99.90
11242;DHT22;5678;52.370;9.006;2023-07-13T11:20:50;29.20;99.90
11242;DHT22;5678;52.370;9.006;2023-07-13T11:23:30;29.00;99.90
11242;DHT22;5678;52.370;9.006;2023-07-13T11:25:59;28.70;99.90
11242;DHT22;5678;52.370;9.006;2023-07-13T11:28:31;28.30;99.90
11242;DHT22;5678;52.370;9.006;2023-07-13T11:31:03;27.70;1.00
11242;DHT22;5678;52.370;9.006;2023-07-13T11:33:55;27.20;1.00
11242;DHT22;5678;52.370;9.006;2023-07-13T11:36:31;26.80;1.00
11242;DHT22;5678;52.370;9.006;2023-07-13T11:39:03;26.70;1.00
11242;DHT22;5678;52.370;9.006;2023-07-13T11:41:35;26.90;1.00
11242;DHT22;5678;52.370;9.006;2023-07-13T11:44:12;27.10;1.00
11242;DHT22;5678;52.370;9.006;2023-07-13T11:46:46;27.40;1.00
11242;DHT22;5678;52.370;9.006;2023-07-13T11:49:19;27.50;1.00
11242;DHT22;5678;52.370;9.006;2023-07-13T11:51:52;27.50;99.90
11242;DHT22;5678;52.370;9.006;2023-07-13T11:54:25;27.00;1.00
11242;DHT22;5678;52.370;9.006;2023-07-13T11:56:55;26.60;1.00
11242;DHT22;5678;52.370;9.006;2023-07-13T11:59:27;26.10;1.00
11242;DHT22;5678;52.370;9.006;2023-07-13T12:01:57;26.40;1.00
11242;DHT22;5678;52.370;9.006;2023-07-13T12:04:27;26.40;1.00
11242;DHT22;5678;52.370;9.006;2023-07-13T12:07:06;26.30;1.00
11242;DHT22;5678;52.370;9.006;2023-07-13T12:09:36;25.90;1.00
11242;DHT22;5678;52.370;9.006;2023-07-13T12:12:07;25.70;1.00
11242;DHT22;5678;52.370;9.006;2023-07-13T12:14:37;25.20;99.90
11242;DHT22;5678;52.370;9.006;2023-07-13T12:17:10;24.60;99.90
11242;DHT22;5678;52.370;9.006;2023-07-13T12:19:40;24.30;99.90
11242;DHT22;5678;52.370;9.006;2023-07-13T12:22:12;24.60;99.90
11242;DHT22;5678;52.370;9.006;2023-07-13T12:24:41;24.80;99.90
11242;DHT22;5678;52.370;9.006;2023-07-13T12:27:18;25.10;99.90
11242;DHT22;5678;52.370;9.006;2023-07-13T12:29:50;25.40;99.90
11242;DHT22;5678;52.370;9.006;2023-07-13T12:32:20;25.60;99.90
11242;DHT22;5678;52.370;9.006;2023-07-13T12:34:53;25.60;99.90
11242;DHT22;5678;52.370;9.006;2023-07-13T12:37:23;25.40;99.90
11242;DHT22;5678;52.370;9.006;2023-07-13T12:39:52;25.00;99.90
11242;DHT22;5678;52.370;9.006;2023-07-13T12:42:21;24.70;99.90
11242;DHT22;5678;52.370;9.006;2023-07-13T12:44:54;24.50;99.90
11242;DHT22;5678;52.370;9.006;2023-07-13T12:47:22;24.40;99.90
11242;DHT22;5678;52.370;9.006;2023-07-13T12:49:54;24.20;99.90
11242;DHT22;5678;52.370;9.006;2023-07-13T12:52:30;23.40;99.90
11242;DHT22;5678;52.370;9.006;2023-07-13T12:55:06;22.90;99.90
11242;DHT22;5678;52.370;9.006;2023-07-13T12:57:47;22.10;99.90
11242;DHT22;5678;52.370;9.006;2023-07-13T13:00:25;22.00;99.90
11242;DHT22;5678;52.370;9.006;2023-07-13T13:02:56;21.90;99.90
11242;DHT22;5678;52.370;9.006;2023-07-13T13:05:41;21.60;99.90
11242;DHT22;5678;52.370;9.006;2023-07-13T13:08:13;21.60;99.90
11242;DHT22;5678;52.370;9.006;2023-07-13T13:10:41;21.60;99.90
11242;DHT22;5678;52.370;9.006;2023-07-13T13:13:09;21.70;99.90
11242;DHT22;5678;52.370;9.006;2023-07-13T13:15:38;21.60;99.90
11242;DHT22;5678;52.370;9.006;2023-07-13T13:18:17;21.60;99.90
11242;DHT22;5678;52.370;9.006;2023-07-13T13:20:46;21.30;99.90
11242;DHT22;5678;52.370;9.006;2023-07-13T13:23:19;21.40;99.90
11242;DHT22;5678;52.370;9.006;2023-07-13T13:25:49;20.70;99.90
11242;DHT22;5678;52.370;9.006;2023-07-13T13:28:19;21.40;99.90
11242;DHT22;5678;52.370;9.006;2023-07-13T13:30:49;21.30;99.90
11242;DHT22;5678;52.370;9.006;2023-07-13T13:33:19;21.30;99.90
11242;DHT22;5678;52.370;9.006;2023-07-13T13:35:48;21.20;99.90
11242;DHT22;5678;52.370;9.006;2023-07-13T13:38:20;21.20;99.90
11242;DHT22;5678;52.370;9.006;2023-07-13T13:48:47;18.90;99.90
11242;DHT22;5678;52.370;9.006;2023-07-13T13:51:20;18.60;99.90
11242;DHT22;5678;52.370;9.006;2023-07-13T13:53:52;19.30;99.90
11242;DHT22;5678;52.370;9.006;2023-07-13T13:56:21;18.20;99.90
11242;DHT22;5678;52.370;9.006;2023-07-13T13:58:49;18.30;99.90
11242;DHT22;5678;52.370;9.006;2023-07-13T14:01:22;17.80;99.90
11242;DHT22;5678;52.370;9.006;2023-07-13T14:03:51;17.60;99.90
11242;DHT22;5678;52.370;9.006;2023-07-13T14:06:20;17.50;99.90
11242;DHT22;5678;52.370;9.006;2023-07-13T14:08:52;17.40;99.90
11242;DHT22;5678;52.370;9.006;2023-07-13T14:11:22;17.20;99.90
11242;DHT22;5678;52.370;9.006;2023-07-13T14:13:58;16.90;99.90
11242;DHT22;5678;52.370;9.006;2023-07-13T14:16:30;16.70;99.90
11242;DHT22;5678;52.370;9.006;2023-07-13T14:21:30;16.60;99.90
11242;DHT22;5678;52.370;9.006;2023-07-13T14:24:00;16.60;99.90
11242;DHT22;5678;52.370;9.006;2023-07-13T14:26:30;16.70;99.90
11242;DHT22;5678;52.370;9.006;2023-07-13T14:28:59;16.60;99.90
11242;DHT22;5678;52.370;9.006;2023-07-13T14:31:28;16.60;99.90
11242;DHT22;5678;52.370;9.006;2023-07-13T14:33:57;16.90;99.90
11242;DHT22;5678;52.370;9.006;2023-07-13T14:36:28;16.70;99.90
11242;DHT22;5678;52.370;9.006;2023-07-13T14:38:57;16.90;99.90
11242;DHT22;5678;52.370;9.006;2023-07-13T14:41:27;18.00;99.90
11242;DHT22;5678;52.370;9.006;2023-07-13T14:43:55;17.30;99.90
11242;DHT22;5678;52.370;9.006;2023-07-13T14:46:28;17.50;99.90
11242;DHT22;5678;52.370;9.006;2023-07-13T14:49:02;17.70;99.90
11242;DHT22;5678;52.370;9.006;2023-07-13T14:51:31;18.20;99.90
11242;DHT22;5678;52.370;9.006;2023-07-13T14:54:02;18.80;99.90
11242;DHT22;5678;52.370;9.006;2023-07-13T14:56:32;19.60;99.90
11242;DHT22;5678;52.370;9.006;2023-07-13T14:59:00;19.90;99.90
11242;DHT22;5678;52.370;9.006;2023-07-13T15:01:28;20.40;99.90
11242;DHT22;5678;52.370;9.006;2023-07-13T15:03:58;20.20;99.90
11242;DHT22;5678;52.370;9.006;2023-07-13T15:06:26;20.80;99.90
11242;DHT22;5678;52.370;9.006;2023-07-13T15:08:55;21.00;99.90
11242;DHT22;5678;52.370;9.006;2023-07-13T15:11:23;20.90;99.90
11242;DHT22;5678;52.370;9.006;2023-07-13T15:13:53;20.90;99.90
11242;DHT22;5678;52.370;9.006;2023-07-13T15:16:23;20.80;99.90
11242;DHT22;5678;52.370;9.006;2023-07-13T15:18:54;20.80;99.90
11242;DHT22;5678;52.370;9.006;2023-07-13T15:21:23;20.80;99.90
11242;DHT22;5678;52.370;9.006;2023-07-13T15:23:52;20.90;99.90
11242;DHT22;5678;52.370;9.006;2023-07-13T15:26:20;20.70;99.90
11242;DHT22;5678;52.370;9.006;2023-07-13T15:28:48;20.90;99.90
11242;DHT22;5678;52.370;9.006;2023-07-13T15:31:22;20.60;99.90
11242;DHT22;5678;52.370;9.006;2023-07-13T15:33:52;20.40;99.90
11242;DHT22;5678;52.370;9.006;2023-07-13T15:36:22;20.20;99.90
11242;DHT22;5678;52.370;9.006;2023-07-13T15:38:54;20.00;99.90
11242;DHT22;5678;52.370;9.006;2023-07-13T15:41:24;20.00;99.90
11242;DHT22;5678;52.370;9.006;2023-07-13T15:43:54;19.90;99.90
11242;DHT22;5678;52.370;9.006;2023-07-13T15:46:24;19.60;99.90
11242;DHT22;5678;52.370;9.006;2023-07-13T15:48:54;19.40;99.90
11242;DHT22;5678;52.370;9.006;2023-07-13T15:51:24;19.10;99.90
11242;DHT22;5678;52.370;9.006;2023-07-13T15:53:54;19.40;99.90
11242;DHT22;5678;52.370;9.006;2023-07-13T15:56:24;19.80;99.90
11242;DHT22;5678;52.370;9.006;2023-07-13T15:58:54;19.20;99.90
11242;DHT22;5678;52.370;9.006;2023-07-13T16:01:24;19.20;99.90
11242;DHT22;5678;52.370;9.006;2023-07-13T16:03:52;19.30;99.90
11242;DHT22;5678;52.370;9.006;2023-07-13T16:06:32;19.50;99.90
11242;DHT22;5678;52.370;9.006;2023-07-13T16:09:02;19.30;99.90
11242;DHT22;5678;52.370;9.006;2023-07-13T16:11:34;19.00;99.90
11242;DHT22;5678;52.370;9.006;2023-07-13T16:14:03;19.50;99.90
11242;DHT22;5678;52.370;9.006;2023-07-13T16:16:34;19.30;99.90
11242;DHT22;5678;52.370;9.006;2023-07-13T16:19:04;19.50;99.90
11242;DHT22;5678;52.370;9.006;2023-07-13T16:21:43;19.50;99.90
11242;DHT22;5678;52.370;9.006;2023-07-13T16:24:18;19.60;99.90
11242;DHT22;5678;52.370;9.006;2023-07-13T16:26:47;19.60;99.90
11242;DHT22;5678;52.370;9.006;2023-07-13T16:29:17;19.40;99.90
11242;DHT22;5678;52.370;9.006;2023-07-13T16:31:57;19.10;99.90
11242;DHT22;5678;52.370;9.006;2023-07-13T16:34:26;19.80;99.90
11242;DHT22;5678;52.370;9.006;2023-07-13T16:36:55;19.40;99.90
11242;DHT22;5678;52.370;9.006;2023-07-13T16:39:25;19.50;99.90
11242;DHT22;5678;52.370;9.006;2023-07-13T16:41:55;19.10;99.90
11242;DHT22;5678;52.370;9.006;2023-07-13T16:44:24;19.00;99.90
11242;DHT22;5678;52.370;9.006;2023-07-13T16:46:55;19.20;99.90
11242;DHT22;5678;52.370;9.006;2023-07-13T16:49:29;19.60;99.90
11242;DHT22;5678;52.370;9.006;2023-07-13T16:51:58;19.30;99.90
11242;DHT22;5678;52.370;9.006;2023-07-13T16:54:29;19.40;99.90
11242;DHT22;5678;52.370;9.006;2023-07-13T16:57:00;19.60;99.90
11242;DHT22;5678;52.370;9.006;2023-07-13T16:59:31;19.20;99.90
11242;DHT22;5678;52.370;9.006;2023-07-13T17:02:02;19.50;99.90
11242;DHT22;5678;52.370;9.006;2023-07-13T17:04:30;19.00;99.90
11242;DHT22;5678;52.370;9.006;2023-07-13T17:07:01;19.20;99.90
11242;DHT22;5678;52.370;9.006;2023-07-13T17:09:32;19.60;99.90
11242;DHT22;5678;52.370;9.006;2023-07-13T17:12:00;19.70;99.90
11242;DHT22;5678;52.370;9.006;2023-07-13T17:14:28;20.20;99.90
11242;DHT22;5678;52.370;9.006;2023-07-13T17:17:02;19.70;99.90
11242;DHT22;5678;52.370;9.006;2023-07-13T17:19:30;19.20;99.90
11242;DHT22;5678;52.370;9.006;2023-07-13T17:22:01;19.20;99.90
11242;DHT22;5678;52.370;9.006;2023-07-13T17:24:33;19.90;99.90
11242;DHT22;5678;52.370;9.006;2023-07-13T17:27:02;19.80;99.90
11242;DHT22;5678;52.370;9.006;2023-07-13T17:29:30;19.30;99.90
11242;DHT22;5678;52.370;9.006;2023-07-13T17:31:59;19.50;99.90
11242;DHT22;5678;52.370;9.006;2023-07-13T17:34:28;19.90;99.90
11242;DHT22;5678;52.370;9.006;2023-07-13T17:36:57;19.70;99.90
11242;DHT22;5678;52.370;9.006;2023-07-13T17:39:25;20.40;99.90
11242;DHT22;5678;52.370;9.006;2023-07-13T17:41:55;19.70;99.90
11242;DHT22;5678;52.370;9.006;2023-07-13T17:44:24;20.40;99.90
11242;DHT22;5678;52.370;9.006;2023-07-13T17:46:54;20.00;99.90
11242;DHT22;5678;52.370;9.006;2023-07-13T17:49:23;20.50;99.90
11242;DHT22;5678;52.370;9.006;2023-07-13T17:52:00;20.40;99.90
11242;DHT22;5678;52.370;9.006;2023-07-13T17:54:30;20.70;99.90
11242;DHT22;5678;52.370;9.006;2023-07-13T17:56:58;20.20;99.90
11242;DHT22;5678;52.370;9.006;2023-07-13T17:59:27;19.70;99.90
11242;DHT22;5678;52.370;9.006;2023-07-13T18:01:56;20.50;99.90
11242;DHT22;5678;52.370;9.006;2023-07-13T18:04:24;20.00;99.90
11242;DHT22;5678;52.370;9.006;2023-07-13T18:06:54;20.00;99.90
11242;DHT22;5678;52.370;9.006;2023-07-13T18:09:25;20.20;99.90
11242;DHT22;5678;52.370;9.006;2023-07-13T18:11:54;19.40;99.90
11242;DHT22;5678;52.370;9.006;2023-07-13T18:14:25;19.80;99.90
11242;DHT22;5678;52.370;9.006;2023-07-13T18:16:55;19.20;99.90
11242;DHT22;5678;52.370;9.006;2023-07-13T18:19:30;18.90;99.90
11242;DHT22;5678;52.370;9.006;2023-07-13T18:22:01;19.00;99.90
11242;DHT22;5678;52.370;9.006;2023-07-13T18:24:31;18.90;99.90
11242;DHT22;5678;52.370;9.006;2023-07-13T18:26:59;19.00;99.90
11242;DHT22;5678;52.370;9.006;2023-07-13T18:29:27;18.80;99.90
11242;DHT22;5678;52.370;9.006;2023-07-13T18:31:55;19.10;99.90
11242;DHT22;5678;52.370;9.006;2023-07-13T18:34:24;18.80;99.90
11242;DHT22;5678;52.370;9.006;2023-07-13T18:36:53;18.70;99.90
11242;DHT22;5678;52.370;9.006;2023-07-13T18:39:22;18.80;99.90
11242;DHT22;5678;52.370;9.006;2023-07-13T18:41:52;18.50;99.90
11242;DHT22;5678;52.370;9.006;2023-07-13T18:44:20;18.70;99.90
11242;DHT22;5678;52.370;9.006;2023-07-13T18:46:48;18.70;99.90
11242;DHT22;5678;52.370;9.006;2023-07-13T18:49:16;18.70;99.90
11242;DHT22;5678;52.370;9.006;2023-07-13T18:51:44;18.50;99.90
11242;DHT22;5678;52.370;9.006;2023-07-13T18:54:13;18.70;99.90
11242;DHT22;5678;52.370;9.006;2023-07-13T18:56:41;18.50;99.90
11242;DHT22;5678;52.370;9.006;2023-07-13T18:59:10;18.50;99.90
11242;DHT22;5678;52.370;9.006;2023-07-13T19:01:38;18.40;99.90
11242;DHT22;5678;52.370;9.006;2023-07-13T19:04:25;18.30;99.90
11242;DHT22;5678;52.370;9.006;2023-07-13T19:06:54;18.40;99.90
11242;DHT22;5678;52.370;9.006;2023-07-13T19:09:22;18.20;99.90
11242;DHT22;5678;52.370;9.006;2023-07-13T19:11:51;18.30;99.90
11242;DHT22;5678;52.370;9.006;2023-07-13T19:14:22;18.30;99.90
11242;DHT22;5678;52.370;9.006;2023-07-13T19:16:51;18.30;99.90
11242;DHT22;5678;52.370;9.006;2023-07-13T19:19:20;18.10;99.90
11242;DHT22;5678;52.370;9.006;2023-07-13T19:21:49;18.60;99.90